createdAt,value
2018-04-18T00:00:50.272Z,9.21
2018-04-18T00:01:50.168Z,9.26
2018-04-18T00:02:50.065Z,9.19
2018-04-18T00:03:49.974Z,9.23
2018-04-18T00:04:49.873Z,9.26
2018-04-18T00:05:49.768Z,9.26
2018-04-18T00:06:49.665Z,9.26
2018-04-18T00:07:49.574Z,9.22
2018-04-18T00:08:49.470Z,9.19
2018-04-18T00:09:49.367Z,9.25
2018-04-18T00:10:49.263Z,9.26
2018-04-18T00:11:49.173Z,9.23
2018-04-18T00:12:49.071Z,9.23
2018-04-18T00:13:48.967Z,9.10
2018-04-18T00:14:48.863Z,9.19
2018-04-18T00:15:48.772Z,9.18
2018-04-18T00:16:48.669Z,9.18
2018-04-18T00:17:48.566Z,9.13
2018-04-18T00:18:48.461Z,9.06
2018-04-18T00:19:48.360Z,9.18
2018-04-18T00:20:48.269Z,9.14
2018-04-18T00:21:48.172Z,9.04
2018-04-18T00:22:48.061Z,9.10
2018-04-18T00:23:47.982Z,9.22
2018-04-18T00:24:47.867Z,9.19
2018-04-18T00:25:47.764Z,9.16
2018-04-18T00:26:47.711Z,9.25
2018-04-18T00:27:47.560Z,9.22
2018-04-18T00:28:47.467Z,9.18
2018-04-18T00:29:47.364Z,9.23
2018-04-18T00:30:47.260Z,9.23
2018-04-18T00:31:47.158Z,9.25
2018-04-18T00:32:47.065Z,9.16
2018-04-18T00:33:46.962Z,9.18
2018-04-18T00:34:46.859Z,9.21
2018-04-18T00:35:46.955Z,9.14
2018-04-18T00:36:46.666Z,9.16
2018-04-18T00:37:46.563Z,9.22
2018-04-18T00:38:46.458Z,9.06
2018-04-18T00:39:46.356Z,9.23
2018-04-18T00:40:46.268Z,9.10
2018-04-18T00:41:46.160Z,9.11
2018-04-18T00:42:46.058Z,9.18
2018-04-18T00:43:45.958Z,9.21
2018-04-18T00:44:45.865Z,9.03
2018-04-18T00:45:45.761Z,9.14
2018-04-18T00:46:45.661Z,9.21
2018-04-18T00:47:45.554Z,9.21
2018-04-18T00:48:45.452Z,9.08
2018-04-18T00:49:45.360Z,9.11
2018-04-18T00:50:45.257Z,9.08
2018-04-18T00:51:45.155Z,8.92
2018-04-18T00:52:45.050Z,8.95
2018-04-18T00:53:44.949Z,8.95
2018-04-18T00:54:44.856Z,9.00
2018-04-18T00:55:44.753Z,8.91
2018-04-18T00:56:44.650Z,8.91
2018-04-18T00:57:44.546Z,8.88
2018-04-18T00:58:44.455Z,8.87
2018-04-18T00:59:44.351Z,8.78
2018-04-18T01:00:44.249Z,8.70
2018-04-18T01:01:44.146Z,8.74
2018-04-18T01:02:44.056Z,8.66
2018-04-18T01:03:43.952Z,8.76
2018-04-18T01:04:43.885Z,8.74
2018-04-18T01:05:43.996Z,8.66
2018-04-18T01:06:43.641Z,8.61
2018-04-18T01:07:43.550Z,8.70
2018-04-18T01:08:43.447Z,8.67
2018-04-18T01:09:43.345Z,8.60
2018-04-18T01:10:43.240Z,8.53
2018-04-18T01:11:43.164Z,8.60
2018-04-18T01:12:43.046Z,8.56
2018-04-18T01:13:42.943Z,8.48
2018-04-18T01:14:42.849Z,8.49
2018-04-18T01:15:42.737Z,8.51
2018-04-18T01:16:42.645Z,8.53
2018-04-18T01:17:42.547Z,8.51
2018-04-18T01:18:42.440Z,8.56
2018-04-18T01:19:42.335Z,8.60
2018-04-18T01:20:42.233Z,8.64
2018-04-18T01:21:42.142Z,8.53
2018-04-18T01:22:42.039Z,8.64
2018-04-18T01:23:41.936Z,8.53
2018-04-18T01:24:41.832Z,8.63
2018-04-18T01:25:41.729Z,8.46
2018-04-18T01:26:41.637Z,8.52
2018-04-18T01:27:41.534Z,8.51
2018-04-18T01:28:41.430Z,8.49
2018-04-18T01:29:41.330Z,8.55
2018-04-18T01:30:41.237Z,8.61
2018-04-18T01:31:41.135Z,8.63
2018-04-18T01:32:41.031Z,8.51
2018-04-18T01:33:40.928Z,8.49
2018-04-18T01:34:40.824Z,8.55
2018-04-18T01:35:40.970Z,8.58
2018-04-18T01:36:40.628Z,8.55
2018-04-18T01:37:40.529Z,8.63
2018-04-18T01:38:40.421Z,8.58
2018-04-18T01:39:40.319Z,8.61
2018-04-18T01:40:40.223Z,8.64
2018-04-18T01:41:40.128Z,8.58
2018-04-18T01:42:40.024Z,8.58
2018-04-18T01:43:39.918Z,8.58
2018-04-18T01:44:39.816Z,8.53
2018-04-18T01:45:40.012Z,8.55
2018-04-18T01:46:39.622Z,8.55
2018-04-18T01:47:39.516Z,8.53
2018-04-18T01:48:39.414Z,8.53
2018-04-18T01:49:39.311Z,8.41
2018-04-18T01:50:39.208Z,8.45
2018-04-18T01:51:39.119Z,8.41
2018-04-18T01:52:39.014Z,8.51
2018-04-18T01:53:38.912Z,8.37
2018-04-18T01:54:38.807Z,8.46
2018-04-18T01:55:38.703Z,8.44
2018-04-18T01:56:38.613Z,8.46
2018-04-18T01:57:38.509Z,8.46
2018-04-18T01:58:38.406Z,8.38
2018-04-18T01:59:38.302Z,8.36
2018-04-18T02:00:38.199Z,8.42
2018-04-18T02:01:38.096Z,8.36
2018-04-18T02:02:38.007Z,8.36
2018-04-18T02:03:37.902Z,8.37
2018-04-18T02:04:37.800Z,8.33
2018-04-18T02:05:37.996Z,8.37
2018-04-18T02:06:37.593Z,8.31
2018-04-18T02:07:37.501Z,8.27
2018-04-18T02:08:37.397Z,8.31
2018-04-18T02:09:37.294Z,8.33
2018-04-18T02:10:37.193Z,8.20
2018-04-18T02:11:37.087Z,8.19
2018-04-18T02:12:37.001Z,8.26
2018-04-18T02:13:36.893Z,8.20
2018-04-18T02:14:36.799Z,8.23
2018-04-18T02:15:36.687Z,8.19
2018-04-18T02:16:36.584Z,8.16
2018-04-18T02:17:36.480Z,8.16
2018-04-18T02:18:36.388Z,8.13
2018-04-18T02:19:36.284Z,8.12
2018-04-18T02:20:36.182Z,8.08
2018-04-18T02:21:36.080Z,8.08
2018-04-18T02:22:35.976Z,8.13
2018-04-18T02:23:35.886Z,8.13
2018-04-18T02:24:35.781Z,8.12
2018-04-18T02:25:35.680Z,8.15
2018-04-18T02:26:35.575Z,8.09
2018-04-18T02:27:35.473Z,8.08
2018-04-18T02:28:35.369Z,8.01
2018-04-18T02:29:35.277Z,7.98
2018-04-18T02:30:35.174Z,8.01
2018-04-18T02:31:35.070Z,7.98
2018-04-18T02:32:34.967Z,7.93
2018-04-18T02:33:34.876Z,7.98
2018-04-18T02:34:34.773Z,7.95
2018-04-18T02:35:34.670Z,7.93
2018-04-18T02:36:34.567Z,8.00
2018-04-18T02:37:34.464Z,7.94
2018-04-18T02:38:34.360Z,7.95
2018-04-18T02:39:34.258Z,7.94
2018-04-18T02:40:34.165Z,7.95
2018-04-18T02:41:34.063Z,7.90
2018-04-18T02:42:33.973Z,7.93
2018-04-18T02:43:33.855Z,7.91
2018-04-18T02:44:33.752Z,7.93
2018-04-18T02:45:33.648Z,7.93
2018-04-18T02:46:33.559Z,7.93
2018-04-18T02:47:33.455Z,7.93
2018-04-18T02:48:33.352Z,7.83
2018-04-18T02:49:33.248Z,7.90
2018-04-18T02:50:33.142Z,7.91
2018-04-18T02:51:33.042Z,7.88
2018-04-18T02:52:32.950Z,7.85
2018-04-18T02:53:32.847Z,7.97
2018-04-18T02:54:32.743Z,7.80
2018-04-18T02:55:32.640Z,7.90
2018-04-18T02:56:32.538Z,7.87
2018-04-18T02:57:32.433Z,7.83
2018-04-18T02:58:32.342Z,7.85
2018-04-18T02:59:32.243Z,7.83
2018-04-18T03:00:32.138Z,7.90
2018-04-18T03:01:32.039Z,7.77
2018-04-18T03:02:31.932Z,7.85
2018-04-18T03:03:31.827Z,7.85
2018-04-18T03:04:31.736Z,7.80
2018-04-18T03:05:31.882Z,7.80
2018-04-18T03:06:31.529Z,7.76
2018-04-18T03:07:31.424Z,7.80
2018-04-18T03:08:31.321Z,7.82
2018-04-18T03:09:31.217Z,7.75
2018-04-18T03:10:31.119Z,7.77
2018-04-18T03:11:31.024Z,7.75
2018-04-18T03:12:30.922Z,7.79
2018-04-18T03:13:30.818Z,7.80
2018-04-18T03:14:30.715Z,7.72
2018-04-18T03:15:30.611Z,7.80
2018-04-18T03:16:30.519Z,7.75
2018-04-18T03:17:30.433Z,7.77
2018-04-18T03:18:30.313Z,7.76
2018-04-18T03:19:30.210Z,7.73
2018-04-18T03:20:30.107Z,7.73
2018-04-18T03:21:30.003Z,7.67
2018-04-18T03:22:29.900Z,7.72
2018-04-18T03:23:29.809Z,7.76
2018-04-18T03:24:29.707Z,7.80
2018-04-18T03:25:29.853Z,7.69
2018-04-18T03:26:29.500Z,7.76
2018-04-18T03:27:29.396Z,7.77
2018-04-18T03:28:29.294Z,7.76
2018-04-18T03:29:29.202Z,7.76
2018-04-18T03:30:29.099Z,7.73
2018-04-18T03:31:28.998Z,7.67
2018-04-18T03:32:28.896Z,7.75
2018-04-18T03:33:28.792Z,7.69
2018-04-18T03:34:28.687Z,7.75
2018-04-18T03:35:28.588Z,7.82
2018-04-18T03:36:28.493Z,7.76
2018-04-18T03:37:28.390Z,7.76
2018-04-18T03:38:28.287Z,7.77
2018-04-18T03:39:28.183Z,7.77
2018-04-18T03:40:28.080Z,7.80
2018-04-18T03:41:27.976Z,7.88
2018-04-18T03:42:27.885Z,7.85
2018-04-18T03:43:27.782Z,7.85
2018-04-18T03:44:27.679Z,7.83
2018-04-18T03:45:27.824Z,7.85
2018-04-18T03:46:27.471Z,7.76
2018-04-18T03:47:27.384Z,7.80
2018-04-18T03:48:27.278Z,7.76
2018-04-18T03:49:27.175Z,7.73
2018-04-18T03:50:27.071Z,7.72
2018-04-18T03:51:26.969Z,7.79
2018-04-18T03:52:26.867Z,7.85
2018-04-18T03:53:26.761Z,7.76
2018-04-18T03:54:26.658Z,7.60
2018-04-18T03:55:26.567Z,7.67
2018-04-18T03:56:26.464Z,7.69
2018-04-18T03:57:26.362Z,7.67
2018-04-18T03:58:26.255Z,7.63
2018-04-18T03:59:26.151Z,7.76
2018-04-18T04:00:26.049Z,7.79
2018-04-18T04:01:25.946Z,7.75
2018-04-18T04:02:25.898Z,7.77
2018-04-18T04:03:25.753Z,7.83
2018-04-18T04:04:25.649Z,7.80
2018-04-18T04:05:25.846Z,7.79
2018-04-18T04:06:25.443Z,7.80
2018-04-18T04:07:25.339Z,7.82
2018-04-18T04:08:25.248Z,7.82
2018-04-18T04:09:25.144Z,7.79
2018-04-18T04:10:25.077Z,7.76
2018-04-18T04:11:24.938Z,7.79
2018-04-18T04:12:24.834Z,7.75
2018-04-18T04:13:24.731Z,7.88
2018-04-18T04:14:24.629Z,7.85
2018-04-18T04:15:24.542Z,7.85
2018-04-18T04:16:24.434Z,7.73
2018-04-18T04:17:24.334Z,7.80
2018-04-18T04:18:24.228Z,7.82
2018-04-18T04:19:24.125Z,7.76
2018-04-18T04:20:24.021Z,7.80
2018-04-18T04:21:23.979Z,7.87
2018-04-18T04:22:23.826Z,7.88
2018-04-18T04:23:23.735Z,7.95
2018-04-18T04:24:23.619Z,8.08
2018-04-18T04:25:23.818Z,8.05
2018-04-18T04:26:23.413Z,8.24
2018-04-18T04:27:23.323Z,8.30
2018-04-18T04:28:23.244Z,8.34
2018-04-18T04:29:23.116Z,8.38
2018-04-18T04:30:23.013Z,8.58
2018-04-18T04:31:22.911Z,8.63
2018-04-18T04:32:22.830Z,8.70
2018-04-18T04:33:22.727Z,8.85
2018-04-18T04:34:22.611Z,8.91
2018-04-18T04:35:22.508Z,8.99
2018-04-18T04:36:22.405Z,9.14
2018-04-18T04:37:22.303Z,9.21
2018-04-18T04:38:22.213Z,9.40
2018-04-18T04:39:22.110Z,9.43
2018-04-18T04:40:22.006Z,9.56
2018-04-18T04:41:21.904Z,9.58
2018-04-18T04:42:21.818Z,9.65
2018-04-18T04:43:21.706Z,9.72
2018-04-18T04:44:21.604Z,9.77
2018-04-18T04:45:21.500Z,9.95
2018-04-18T04:46:21.411Z,9.99
2018-04-18T04:47:21.309Z,10.09
2018-04-18T04:48:21.204Z,10.26
2018-04-18T04:49:21.100Z,10.09
2018-04-18T04:50:21.022Z,10.23
2018-04-18T04:51:20.906Z,10.34
2018-04-18T04:52:20.803Z,10.33
2018-04-18T04:53:20.703Z,10.37
2018-04-18T04:54:20.609Z,10.41
2018-04-18T04:55:20.505Z,10.34
2018-04-18T04:56:20.402Z,10.26
2018-04-18T04:57:20.311Z,10.35
2018-04-18T04:58:20.211Z,10.61
2018-04-18T04:59:20.118Z,10.93
2018-04-18T05:00:20.015Z,11.10
2018-04-18T05:01:19.912Z,11.19
2018-04-18T05:02:19.810Z,11.10
2018-04-18T05:03:19.717Z,11.27
2018-04-18T05:04:19.613Z,11.33
2018-04-18T05:05:19.759Z,11.59
2018-04-18T05:06:19.409Z,11.73
2018-04-18T05:07:19.316Z,11.88
2018-04-18T05:08:19.216Z,12.00
2018-04-18T05:09:19.121Z,11.99
2018-04-18T05:10:19.020Z,12.24
2018-04-18T05:11:18.916Z,12.32
2018-04-18T05:12:18.825Z,12.53
2018-04-18T05:13:18.721Z,12.68
2018-04-18T05:14:18.618Z,13.05
2018-04-18T05:15:18.527Z,13.05
2018-04-18T05:16:18.423Z,13.05
2018-04-18T05:17:18.333Z,13.16
2018-04-18T05:18:18.234Z,13.46
2018-04-18T05:19:18.140Z,13.57
2018-04-18T05:20:18.048Z,13.54
2018-04-18T05:21:17.932Z,13.63
2018-04-18T05:22:17.843Z,13.95
2018-04-18T05:23:17.739Z,14.07
2018-04-18T05:24:17.646Z,14.28
2018-04-18T05:25:17.544Z,14.62
2018-04-18T05:26:17.453Z,14.59
2018-04-18T05:27:17.350Z,14.88
2018-04-18T05:28:17.258Z,14.86
2018-04-18T05:29:17.156Z,15.14
2018-04-18T05:30:17.067Z,15.33
2018-04-18T05:31:16.962Z,15.57
2018-04-18T05:32:16.870Z,15.65
2018-04-18T05:33:16.768Z,15.76
2018-04-18T05:34:16.676Z,15.83
2018-04-18T05:35:16.834Z,15.92
2018-04-18T05:36:16.482Z,16.08
2018-04-18T05:37:16.398Z,16.29
2018-04-18T05:38:16.300Z,16.33
2018-04-18T05:39:16.198Z,16.16
2018-04-18T05:40:16.107Z,16.24
2018-04-18T05:41:16.004Z,16.42
2018-04-18T05:42:15.912Z,16.79
2018-04-18T05:43:15.823Z,17.01
2018-04-18T05:44:15.718Z,17.19
2018-04-18T05:45:15.636Z,17.38
2018-04-18T05:46:15.539Z,17.46
2018-04-18T05:47:15.435Z,17.68
2018-04-18T05:48:15.344Z,17.83
2018-04-18T05:49:15.253Z,17.87
2018-04-18T05:50:15.149Z,17.85
2018-04-18T05:51:15.057Z,17.97
2018-04-18T05:52:14.961Z,18.07
2018-04-18T05:53:14.876Z,18.10
2018-04-18T05:54:14.772Z,18.16
2018-04-18T05:55:14.710Z,18.28
2018-04-18T05:56:14.593Z,18.47
2018-04-18T05:57:14.504Z,18.43
2018-04-18T05:58:14.397Z,18.68
2018-04-18T05:59:14.305Z,18.60
2018-04-18T06:00:14.216Z,18.71
2018-04-18T06:01:14.124Z,18.96
2018-04-18T06:02:14.034Z,19.15
2018-04-18T06:03:13.943Z,19.39
2018-04-18T06:04:13.839Z,19.56
2018-04-18T06:05:13.750Z,19.45
2018-04-18T06:06:13.717Z,19.52
2018-04-18T06:07:13.568Z,19.66
2018-04-18T06:08:13.476Z,19.86
2018-04-18T06:09:13.388Z,20.02
2018-04-18T06:10:13.294Z,20.18
2018-04-18T06:11:13.217Z,20.26
2018-04-18T06:12:13.114Z,20.24
2018-04-18T06:13:13.010Z,20.43
2018-04-18T06:14:12.920Z,20.51
2018-04-18T06:15:12.829Z,20.59
2018-04-18T06:16:12.738Z,20.80
2018-04-18T06:17:12.647Z,20.75
2018-04-18T06:18:12.556Z,20.52
2018-04-18T06:19:12.503Z,20.60
2018-04-18T06:20:12.386Z,20.82
2018-04-18T06:21:12.283Z,21.03
2018-04-18T06:22:12.194Z,21.03
2018-04-18T06:23:12.102Z,21.02
2018-04-18T06:24:12.015Z,20.78
2018-04-18T06:25:11.920Z,21.09
2018-04-18T06:26:11.833Z,21.14
2018-04-18T06:27:11.789Z,21.36
2018-04-18T06:28:11.660Z,21.42
2018-04-18T06:29:11.574Z,21.58
2018-04-18T06:30:11.478Z,21.79
2018-04-18T06:31:11.388Z,21.88
2018-04-18T06:32:11.296Z,21.96
2018-04-18T06:33:11.208Z,22.13
2018-04-18T06:34:11.117Z,22.39
2018-04-18T06:35:11.025Z,22.43
2018-04-18T06:36:10.934Z,22.55
2018-04-18T06:37:10.844Z,22.81
2018-04-18T06:38:10.765Z,22.93
2018-04-18T06:39:10.673Z,22.99
2018-04-18T06:40:10.583Z,23.20
2018-04-18T06:41:10.501Z,23.24
2018-04-18T06:42:10.403Z,23.41
2018-04-18T06:43:10.311Z,23.47
2018-04-18T06:44:10.231Z,23.62
2018-04-18T06:45:10.141Z,23.76
2018-04-18T06:46:10.051Z,23.66
2018-04-18T06:47:09.960Z,23.73
2018-04-18T06:48:09.870Z,23.61
2018-04-18T06:49:09.793Z,23.46
2018-04-18T06:50:09.702Z,23.59
2018-04-18T06:51:09.609Z,23.81
2018-04-18T06:52:09.518Z,23.99
2018-04-18T06:53:09.441Z,24.28
2018-04-18T06:54:09.349Z,24.35
2018-04-18T06:55:09.259Z,24.51
2018-04-18T06:56:09.180Z,24.74
2018-04-18T06:57:09.089Z,24.66
2018-04-18T06:58:08.999Z,24.70
2018-04-18T06:59:08.923Z,24.76
2018-04-18T07:00:08.832Z,24.74
2018-04-18T07:01:08.745Z,24.84
2018-04-18T07:02:08.647Z,24.86
2018-04-18T07:03:08.559Z,24.86
2018-04-18T07:04:08.479Z,24.88
2018-04-18T07:05:08.387Z,24.85
2018-04-18T07:06:08.298Z,25.07
2018-04-18T07:07:08.219Z,25.16
2018-04-18T07:08:08.128Z,25.16
2018-04-18T07:09:08.039Z,25.31
2018-04-18T07:10:07.961Z,25.47
2018-04-18T07:11:07.873Z,25.54
2018-04-18T07:12:07.795Z,25.68
2018-04-18T07:13:07.701Z,25.84
2018-04-18T07:14:07.612Z,25.91
2018-04-18T07:15:07.531Z,25.80
2018-04-18T07:16:07.439Z,25.60
2018-04-18T07:17:07.349Z,25.60
2018-04-18T07:18:07.273Z,25.62
2018-04-18T07:19:07.179Z,25.62
2018-04-18T07:20:07.091Z,25.50
2018-04-18T07:21:07.011Z,25.22
2018-04-18T07:22:06.920Z,24.84
2018-04-18T07:23:06.845Z,24.43
2018-04-18T07:24:06.751Z,24.06
2018-04-18T07:25:06.661Z,23.48
2018-04-18T07:26:06.569Z,23.02
2018-04-18T07:27:06.490Z,22.66
2018-04-18T07:28:06.404Z,22.13
2018-04-18T07:29:06.309Z,21.69
2018-04-18T07:30:06.219Z,21.46
2018-04-18T07:31:06.141Z,21.21
2018-04-18T07:32:06.050Z,20.92
2018-04-18T07:33:05.959Z,20.95
2018-04-18T07:34:05.871Z,20.78
2018-04-18T07:35:05.789Z,20.51
2018-04-18T07:36:05.699Z,20.50
2018-04-18T07:37:05.607Z,20.41
2018-04-18T07:38:05.518Z,20.31
2018-04-18T07:39:05.425Z,20.28
2018-04-18T07:40:05.398Z,20.29
2018-04-18T07:41:05.245Z,20.36
2018-04-18T07:42:05.166Z,20.34
2018-04-18T07:43:05.076Z,20.36
2018-04-18T07:44:04.984Z,20.39
2018-04-18T07:45:04.894Z,20.29
2018-04-18T07:46:04.802Z,20.10
2018-04-18T07:47:04.713Z,20.11
2018-04-18T07:48:04.621Z,20.19
2018-04-18T07:49:04.530Z,20.19
2018-04-18T07:50:04.441Z,20.19
2018-04-18T07:51:04.350Z,20.10
2018-04-18T07:52:04.258Z,20.21
2018-04-18T07:53:04.168Z,20.31
2018-04-18T07:54:04.082Z,20.28
2018-04-18T07:55:03.998Z,20.40
2018-04-18T07:56:03.906Z,20.43
2018-04-18T07:57:03.816Z,20.43
2018-04-18T07:58:03.727Z,20.40
2018-04-18T07:59:03.635Z,20.39
2018-04-18T08:00:03.545Z,20.36
2018-04-18T08:01:03.453Z,20.29
2018-04-18T08:02:03.365Z,20.47
2018-04-18T08:03:03.280Z,20.34
2018-04-18T08:04:03.181Z,20.34
2018-04-18T08:05:03.090Z,20.37
2018-04-18T08:06:02.998Z,20.44
2018-04-18T08:07:02.907Z,20.40
2018-04-18T08:08:02.823Z,20.40
2018-04-18T08:09:02.729Z,20.44
2018-04-18T08:10:02.624Z,20.44
2018-04-18T08:11:02.534Z,20.52
2018-04-18T08:12:02.443Z,20.58
2018-04-18T08:13:02.351Z,20.62
2018-04-18T08:14:02.261Z,20.60
2018-04-18T08:15:02.170Z,20.65
2018-04-18T08:16:02.090Z,20.69
2018-04-18T08:17:01.989Z,20.59
2018-04-18T08:18:01.897Z,20.74
2018-04-18T08:19:01.806Z,20.75
2018-04-18T08:20:01.965Z,20.77
2018-04-18T08:21:01.626Z,20.81
2018-04-18T08:22:01.535Z,20.87
2018-04-18T08:23:01.443Z,20.85
2018-04-18T08:24:01.351Z,20.87
2018-04-18T08:25:01.261Z,20.93
2018-04-18T08:26:01.169Z,21.00
2018-04-18T08:27:01.080Z,20.99
2018-04-18T08:28:00.989Z,21.07
2018-04-18T08:29:00.899Z,21.05
2018-04-18T08:30:00.810Z,21.18
2018-04-18T08:31:00.717Z,21.21
2018-04-18T08:32:00.625Z,21.20
2018-04-18T08:33:00.535Z,21.22
2018-04-18T08:34:00.484Z,21.24
2018-04-18T08:35:00.353Z,21.27
2018-04-18T08:36:00.262Z,21.15
2018-04-18T08:37:00.172Z,21.22
2018-04-18T08:38:00.080Z,21.22
2018-04-18T08:38:59.992Z,21.21
2018-04-18T08:40:00.149Z,21.32
2018-04-18T08:40:59.796Z,21.50
2018-04-18T08:41:59.705Z,21.43
2018-04-18T08:42:59.617Z,21.43
2018-04-18T08:43:59.524Z,21.43
2018-04-18T08:44:59.436Z,21.55
2018-04-18T08:45:59.341Z,21.54
2018-04-18T08:46:59.255Z,21.48
2018-04-18T08:47:59.160Z,21.51
2018-04-18T08:48:59.081Z,21.72
2018-04-18T08:49:58.982Z,21.75
2018-04-18T08:50:58.887Z,21.80
2018-04-18T08:51:58.796Z,21.93
2018-04-18T08:52:58.706Z,22.17
2018-04-18T08:53:58.616Z,22.30
2018-04-18T08:54:58.523Z,22.35
2018-04-18T08:55:58.435Z,22.62
2018-04-18T08:56:58.342Z,22.76
2018-04-18T08:57:58.251Z,22.80
2018-04-18T08:58:58.159Z,22.99
2018-04-18T08:59:58.069Z,23.23
2018-04-18T09:00:57.982Z,23.36
2018-04-18T09:01:57.887Z,23.54
2018-04-18T09:02:57.796Z,23.74
2018-04-18T09:03:57.709Z,24.01
2018-04-18T09:04:57.627Z,24.20
2018-04-18T09:05:57.525Z,24.23
2018-04-18T09:06:57.433Z,23.99
2018-04-18T09:07:57.342Z,23.86
2018-04-18T09:08:57.263Z,23.36
2018-04-18T09:09:57.160Z,23.06
2018-04-18T09:10:57.069Z,22.76
2018-04-18T09:11:56.981Z,22.75
2018-04-18T09:12:56.887Z,22.55
2018-04-18T09:13:56.786Z,22.51
2018-04-18T09:14:56.706Z,22.50
2018-04-18T09:15:56.617Z,22.47
2018-04-18T09:16:56.514Z,22.38
2018-04-18T09:17:56.423Z,22.45
2018-04-18T09:18:56.343Z,22.47
2018-04-18T09:19:56.252Z,22.50
2018-04-18T09:20:56.163Z,22.55
2018-04-18T09:21:56.070Z,22.59
2018-04-18T09:22:55.980Z,22.55
2018-04-18T09:23:55.889Z,22.54
2018-04-18T09:24:55.797Z,22.53
2018-04-18T09:25:55.708Z,22.55
2018-04-18T09:26:55.616Z,22.69
2018-04-18T09:27:55.526Z,22.76
2018-04-18T09:28:55.435Z,23.03
2018-04-18T09:29:55.345Z,23.10
2018-04-18T09:30:55.252Z,23.44
2018-04-18T09:31:55.163Z,23.77
2018-04-18T09:32:55.071Z,24.48
2018-04-18T09:33:54.980Z,25.11
2018-04-18T09:34:54.890Z,25.91
2018-04-18T09:35:54.799Z,26.34
2018-04-18T09:36:54.707Z,26.95
2018-04-18T09:37:54.617Z,27.40
2018-04-18T09:38:54.525Z,27.90
2018-04-18T09:39:54.436Z,28.11
2018-04-18T09:40:54.345Z,28.57
2018-04-18T09:41:54.265Z,28.62
2018-04-18T09:42:54.178Z,28.66
2018-04-18T09:43:54.084Z,28.93
2018-04-18T09:44:53.997Z,29.10
2018-04-18T09:45:53.918Z,29.20
2018-04-18T09:46:53.825Z,29.38
2018-04-18T09:47:53.762Z,29.66
2018-04-18T09:48:53.656Z,29.91
2018-04-18T09:49:53.568Z,29.82
2018-04-18T09:50:53.487Z,29.81
2018-04-18T09:51:53.408Z,29.86
2018-04-18T09:52:53.320Z,29.91
2018-04-18T09:53:53.240Z,29.90
2018-04-18T09:54:53.149Z,30.09
2018-04-18T09:55:53.071Z,29.95
2018-04-18T09:56:53.005Z,30.15
2018-04-18T09:57:52.901Z,30.13
2018-04-18T09:58:52.823Z,30.13
2018-04-18T09:59:52.745Z,30.46
2018-04-18T10:00:52.668Z,30.61
2018-04-18T10:01:52.576Z,30.80
2018-04-18T10:02:52.497Z,30.78
2018-04-18T10:03:52.419Z,31.02
2018-04-18T10:04:52.340Z,31.09
2018-04-18T10:05:52.264Z,31.33
2018-04-18T10:06:52.183Z,31.46
2018-04-18T10:07:52.095Z,31.49
2018-04-18T10:08:52.015Z,31.28
2018-04-18T10:09:51.938Z,31.18
2018-04-18T10:10:51.860Z,31.02
2018-04-18T10:11:51.781Z,31.09
2018-04-18T10:12:51.698Z,30.69
2018-04-18T10:13:51.628Z,30.92
2018-04-18T10:14:51.545Z,30.65
2018-04-18T10:15:51.468Z,30.16
2018-04-18T10:16:51.391Z,30.03
2018-04-18T10:17:51.310Z,29.75
2018-04-18T10:18:51.232Z,29.72
2018-04-18T10:19:51.153Z,29.27
2018-04-18T10:20:51.076Z,29.44
2018-04-18T10:21:50.997Z,29.72
2018-04-18T10:22:50.934Z,29.94
2018-04-18T10:23:50.841Z,30.12
2018-04-18T10:24:50.762Z,30.28
2018-04-18T10:25:50.684Z,30.32
2018-04-18T10:26:50.605Z,29.97
2018-04-18T10:27:50.527Z,29.71
2018-04-18T10:28:50.449Z,29.65
2018-04-18T10:29:50.373Z,29.47
2018-04-18T10:30:50.291Z,29.04
2018-04-18T10:31:50.217Z,28.48
2018-04-18T10:32:50.135Z,28.23
2018-04-18T10:33:50.057Z,27.98
2018-04-18T10:34:50.015Z,27.40
2018-04-18T10:35:49.902Z,26.97
2018-04-18T10:36:49.825Z,26.83
2018-04-18T10:37:49.744Z,26.78
2018-04-18T10:38:49.667Z,26.59
2018-04-18T10:39:49.574Z,26.33
2018-04-18T10:40:49.495Z,26.31
2018-04-18T10:41:49.428Z,26.38
2018-04-18T10:42:49.338Z,26.19
2018-04-18T10:43:49.248Z,26.31
2018-04-18T10:44:49.171Z,26.37
2018-04-18T10:45:49.091Z,26.51
2018-04-18T10:46:49.000Z,26.55
2018-04-18T10:47:48.924Z,26.52
2018-04-18T10:48:48.843Z,26.56
2018-04-18T10:49:48.754Z,26.56
2018-04-18T10:50:48.679Z,26.38
2018-04-18T10:51:48.587Z,26.13
2018-04-18T10:52:48.507Z,25.98
2018-04-18T10:53:48.416Z,25.80
2018-04-18T10:54:48.340Z,25.60
2018-04-18T10:55:48.247Z,25.41
2018-04-18T10:56:48.167Z,25.25
2018-04-18T10:57:48.079Z,25.22
2018-04-18T10:58:48.000Z,25.13
2018-04-18T10:59:47.911Z,25.06
2018-04-18T11:00:47.829Z,24.78
2018-04-18T11:01:47.739Z,24.50
2018-04-18T11:02:47.650Z,24.24
2018-04-18T11:03:47.570Z,24.06
2018-04-18T11:04:47.480Z,24.03
2018-04-18T11:05:47.402Z,23.87
2018-04-18T11:06:47.304Z,23.71
2018-04-18T11:07:47.219Z,23.71
2018-04-18T11:08:47.141Z,23.65
2018-04-18T11:09:47.050Z,23.71
2018-04-18T11:10:46.960Z,23.59
2018-04-18T11:11:46.881Z,23.68
2018-04-18T11:12:46.790Z,23.51
2018-04-18T11:13:46.705Z,23.59
2018-04-18T11:14:46.609Z,23.54
2018-04-18T11:15:46.530Z,23.36
2018-04-18T11:16:46.440Z,23.37
2018-04-18T11:17:46.348Z,23.36
2018-04-18T11:18:46.319Z,23.34
2018-04-18T11:19:46.179Z,23.44
2018-04-18T11:20:46.088Z,23.32
2018-04-18T11:21:45.998Z,23.37
2018-04-18T11:22:45.919Z,23.39
2018-04-18T11:23:45.828Z,23.32
2018-04-18T11:24:45.738Z,23.34
2018-04-18T11:25:45.647Z,23.46
2018-04-18T11:26:45.556Z,23.43
2018-04-18T11:27:45.465Z,23.50
2018-04-18T11:28:45.375Z,23.43
2018-04-18T11:29:45.297Z,23.47
2018-04-18T11:30:45.205Z,23.51
2018-04-18T11:31:45.115Z,23.66
2018-04-18T11:32:45.024Z,23.56
2018-04-18T11:33:44.934Z,23.55
2018-04-18T11:34:44.844Z,23.65
2018-04-18T11:35:44.763Z,23.68
2018-04-18T11:36:44.675Z,23.61
2018-04-18T11:37:44.583Z,23.66
2018-04-18T11:38:44.492Z,23.54
2018-04-18T11:39:44.444Z,23.59
2018-04-18T11:40:44.312Z,23.68
2018-04-18T11:41:44.233Z,23.73
2018-04-18T11:42:44.142Z,23.73
2018-04-18T11:43:44.052Z,23.77
2018-04-18T11:44:43.960Z,23.92
2018-04-18T11:45:43.870Z,23.92
2018-04-18T11:46:43.779Z,23.93
2018-04-18T11:47:43.690Z,23.98
2018-04-18T11:48:43.610Z,24.01
2018-04-18T11:49:43.522Z,23.99
2018-04-18T11:50:43.427Z,24.17
2018-04-18T11:51:43.336Z,24.24
2018-04-18T11:52:43.251Z,24.23
2018-04-18T11:53:43.158Z,24.13
2018-04-18T11:54:43.064Z,24.33
2018-04-18T11:55:42.986Z,24.24
2018-04-18T11:56:42.895Z,24.13
2018-04-18T11:57:42.804Z,24.18
2018-04-18T11:58:42.714Z,24.13
2018-04-18T11:59:42.622Z,24.11
2018-04-18T12:00:42.532Z,24.18
2018-04-18T12:01:42.441Z,24.14
2018-04-18T12:02:42.351Z,24.05
2018-04-18T12:03:42.273Z,24.03
2018-04-18T12:04:42.181Z,24.02
2018-04-18T12:05:42.090Z,23.95
2018-04-18T12:06:42.000Z,23.99
2018-04-18T12:07:41.910Z,24.01
2018-04-18T12:08:41.818Z,24.03
2018-04-18T12:09:41.727Z,24.05
2018-04-18T12:10:41.637Z,24.16
2018-04-18T12:11:41.564Z,24.13
2018-04-18T12:12:41.469Z,24.16
2018-04-18T12:13:41.380Z,24.23
2018-04-18T12:14:41.285Z,24.20
2018-04-18T12:15:41.194Z,24.26
2018-04-18T12:16:41.105Z,24.36
2018-04-18T12:17:41.013Z,24.43
2018-04-18T12:18:40.922Z,24.32
2018-04-18T12:19:40.843Z,24.40
2018-04-18T12:20:40.768Z,24.38
2018-04-18T12:21:40.665Z,24.35
2018-04-18T12:22:40.573Z,24.40
2018-04-18T12:23:40.483Z,24.38
2018-04-18T12:24:40.390Z,24.28
2018-04-18T12:25:40.301Z,24.16
2018-04-18T12:26:40.268Z,24.02
2018-04-18T12:27:40.130Z,24.06
2018-04-18T12:28:40.038Z,24.01
2018-04-18T12:29:39.947Z,24.05
2018-04-18T12:30:39.870Z,24.06
2018-04-18T12:31:39.766Z,24.05
2018-04-18T12:32:39.674Z,24.10
2018-04-18T12:33:39.630Z,24.17
2018-04-18T12:34:39.505Z,24.02
2018-04-18T12:35:39.415Z,24.08
2018-04-18T12:36:39.324Z,24.14
2018-04-18T12:37:39.234Z,24.16
2018-04-18T12:38:39.145Z,24.13
2018-04-18T12:39:39.054Z,24.18
2018-04-18T12:40:38.962Z,24.26
2018-04-18T12:41:38.870Z,24.26
2018-04-18T12:42:38.780Z,24.14
2018-04-18T12:43:38.701Z,24.14
2018-04-18T12:44:38.610Z,24.06
2018-04-18T12:45:38.520Z,23.99
2018-04-18T12:46:38.428Z,24.02
2018-04-18T12:47:38.339Z,24.06
2018-04-18T12:48:38.246Z,24.10
2018-04-18T12:49:38.159Z,24.16
2018-04-18T12:50:38.064Z,23.99
2018-04-18T12:51:37.999Z,24.03
2018-04-18T12:52:37.896Z,23.98
2018-04-18T12:53:37.804Z,24.11
2018-04-18T12:54:37.713Z,24.21
2018-04-18T12:55:37.622Z,24.24
2018-04-18T12:56:37.533Z,24.26
2018-04-18T12:57:37.454Z,24.29
2018-04-18T12:58:37.350Z,24.24
2018-04-18T12:59:37.260Z,24.24
2018-04-18T13:00:37.193Z,24.28